Data for 02/08/2008

Time Sea-Level Adjusted Pressure Absolute Pressure Temperature Relative Humidity Dew Point   
(mb) (inHg) (mb) (inHg) (C) (F) (%) (C) (F)
00:05 1010 29.83 839 24.78 -1.9 28.6 48 -11.4 11.5
00:10 1010 29.83 839 24.78 -2.1 28.2 49 -11.6 11.2
00:15 1010 29.83 839 24.78 -2.1 28.3 48 -11.8 10.8
00:20 1010 29.83 839 24.78 -2.1 28.3 49 -11.5 11.4
00:25 1010 29.83 840 24.81 -2.1 28.2 49 -11.5 11.4
00:30 1010 29.83 840 24.81 -2.1 28.3 48 -11.7 10.9
00:35 1011 29.85 840 24.81 -2 28.3 48 -11.7 10.9
00:40 1011 29.85 840 24.81 -2 28.4 48 -11.5 11.2
00:45 1010 29.83 840 24.81 -2 28.4 48 -11.5 11.2
00:50 1010 29.83 840 24.81 -2 28.3 48 -11.6 11.2
00:55 1011 29.85 840 24.81 -2 28.3 48 -11.6 11.2
01:00 1011 29.85 840 24.81 -2 28.3 48 -11.5 11.3
01:05 1011 29.85 840 24.81 -2 28.5 48 -11.6 11.2
01:10 1011 29.85 840 24.81 -1.9 28.5 48 -11.6 11.2
01:15 1011 29.85 840 24.81 -2 28.5 48 -11.6 11.1
01:20 1011 29.85 840 24.81 -1.9 28.6 45 -12.4 9.7
01:25 1011 29.85 840 24.81 -1.7 28.9 46 -11.9 10.7
01:30 1011 29.85 840 24.81 -1.9 28.6 47 -11.7 10.9
01:35 1011 29.85 840 24.81 -1.9 28.5 46 -12 10.5
01:40 1011 29.85 840 24.81 -2 28.5 47 -11.8 10.8
01:45 1011 29.85 840 24.81 -1.9 28.5 46 -12.1 10.2
01:50 1011 29.85 840 24.81 -1.9 28.5 47 -11.7 10.9
01:55 1011 29.85 840 24.81 -2.1 28.2 48 -11.6 11.1
02:00 1011 29.85 840 24.81 -2.1 28.2 48 -11.6 11.1
02:05 1011 29.85 840 24.81 -2.2 28.1 49 -11.5 11.3
02:10 1011 29.85 840 24.81 -2.3 27.9 50 -11.4 11.5
02:15 1011 29.85 840 24.81 -2.4 27.7 50 -11.6 11.2
02:20 1011 29.85 840 24.81 -2.5 27.5 49 -11.7 10.9
02:25 1011 29.85 840 24.81 -2.4 27.7 48 -12 10.4
02:30 1011 29.85 840 24.81 -2.3 27.8 46 -12.3 9.8
02:35 1011 29.85 840 24.81 -2.2 28 47 -12 10.3
02:40 1011 29.85 840 24.81 -2.2 28 48 -11.9 10.5
02:45 1011 29.85 840 24.81 -2.4 27.8 50 -11.4 11.5
02:50 1011 29.85 840 24.81 -2.6 27.4 50 -11.6 11.1
02:55 1011 29.85 840 24.81 -2.5 27.5 49 -11.9 10.5
03:00 1011 29.85 840 24.81 -2.5 27.4 49 -11.8 10.8
03:05 1011 29.85 840 24.81 -2.6 27.2 51 -11.6 11.2
03:10 1011 29.85 840 24.81 -2.6 27.2 49 -12 10.3
03:15 1011 29.85 840 24.81 -2.5 27.4 49 -11.9 10.5
03:20 1011 29.85 840 24.81 -2.4 27.7 48 -12 10.4
03:25 1011 29.85 840 24.81 -2.3 27.8 47 -12.1 10.3
03:30 1011 29.85 840 24.81 -2.3 27.9 47 -12.1 10.1
03:35 1011 29.85 840 24.81 -2.2 28 46 -12.4 9.7
03:40 1011 29.85 840 24.81 -2.2 28.1 46 -12.2 10
03:45 1011 29.85 840 24.81 -2.1 28.2 45 -12.6 9.4
03:50 1011 29.85 840 24.81 -2 28.4 44 -12.7 9.1
03:55 1011 29.85 840 24.81 -2 28.5 46 -12.2 10
04:00 1011 29.85 840 24.81 -2 28.4 45 -12.3 9.8
04:05 1011 29.85 840 24.81 -2 28.3 46 -12.3 9.9
04:10 1011 29.85 840 24.81 -2.1 28.3 45 -12.5 9.5
04:15 1011 29.85 840 24.81 -2.1 28.3 44 -12.9 8.8
04:20 1011 29.85 840 24.81 -2 28.5 45 -12.4 9.7
04:25 1011 29.85 840 24.81 -2.2 28.1 48 -11.8 10.8
04:30 1011 29.85 840 24.81 -2.3 27.9 46 -12.3 9.8
04:35 1011 29.85 840 24.81 -2.1 28.2 44 -12.7 9.1
04:40 1011 29.85 840 24.81 -2 28.3 46 -12.3 9.9
04:45 1011 29.85 840 24.81 -2 28.3 44 -12.8 8.9
04:50 1011 29.85 840 24.81 -2 28.5 45 -12.5 9.6
04:55 1011 29.85 840 24.81 -2 28.3 45 -12.5 9.4
05:00 1011 29.85 840 24.81 -2.2 28.1 47 -12.1 10.3
05:05 1011 29.85 840 24.81 -2.4 27.7 49 -11.6 11.1
05:10 1011 29.85 840 24.81 -2.5 27.5 49 -11.9 10.6
05:15 1011 29.85 840 24.81 -2.5 27.4 49 -11.7 10.9
05:20 1011 29.85 840 24.81 -2.5 27.4 50 -11.5 11.2
05:25 1011 29.85 840 24.81 -2.6 27.4 49 -11.8 10.7
05:30 1011 29.85 840 24.81 -2.5 27.6 50 -11.5 11.3
05:35 1011 29.85 840 24.81 -2.5 27.6 49 -11.7 11
05:40 1011 29.85 840 24.81 -2.4 27.7 49 -11.7 11
05:45 1011 29.85 840 24.81 -2.3 27.8 49 -11.6 11
05:50 1011 29.85 840 24.81 -2.3 27.9 47 -12.1 10.3
05:55 1011 29.85 840 24.81 -2.3 27.9 48 -11.7 10.9
06:00 1011 29.85 840 24.81 -2.3 27.9 49 -11.8 10.8
06:05 1011 29.85 840 24.81 -2.3 27.9 48 -11.9 10.6
06:10 1011 29.85 840 24.81 -2.3 27.8 47 -12.1 10.2
06:15 1011 29.85 840 24.81 -2.3 27.9 46 -12.5 9.6
06:20 1011 29.85 840 24.81 -2.2 28.1 47 -12.1 10.2
06:25 1011 29.85 840 24.81 -2.2 28 46 -12.3 9.9
06:30 1011 29.85 840 24.81 -2.3 27.9 45 -12.6 9.4
06:35 1011 29.85 840 24.81 -2.1 28.2 44 -12.7 9.2
06:40 1011 29.85 840 24.81 -2.2 28.1 47 -12.2 10.1
06:45 1011 29.85 840 24.81 -2.3 27.9 47 -12.2 10
06:50 1011 29.85 840 24.81 -2.3 27.9 47 -12.2 10
06:55 1010 29.83 840 24.81 -2.3 27.8 48 -11.9 10.6
07:00 1010 29.83 840 24.81 -2.4 27.7 48 -12 10.3
07:05 1010 29.83 839 24.78 -2.3 27.8 49 -11.8 10.8
07:10 1010 29.83 839 24.78 -2.4 27.7 49 -11.8 10.8
07:15 1010 29.83 839 24.78 -2.3 27.8 49 -11.8 10.8
07:20 1010 29.83 839 24.78 -2.4 27.8 49 -11.7 11
07:25 1010 29.83 839 24.78 -2.4 27.7 49 -11.8 10.8
07:30 1010 29.83 839 24.78 -2.3 27.8 49 -11.6 11.1
07:35 1010 29.83 839 24.78 -2.4 27.7 48 -12 10.4
07:40 1010 29.83 839 24.78 -2.3 27.9 48 -11.8 10.7
07:45 1010 29.83 839 24.78 -2.2 28 48 -11.7 10.9
07:50 1010 29.83 839 24.78 -2.3 27.9 48 -11.8 10.8
07:55 1010 29.83 839 24.78 -2.3 27.8 47 -12.1 10.2
08:00 1010 29.83 839 24.78 -2.3 27.8 49 -11.6 11
08:05 1010 29.83 839 24.78 -2.4 27.8 48 -11.8 10.7
08:10 1010 29.83 839 24.78 -2.4 27.7 50 -11.5 11.3
08:15 1010 29.83 839 24.78 -2.5 27.6 50 -11.6 11.1
08:20 1010 29.83 839 24.78 -2.2 28 51 -11 12.2
08:25 1010 29.83 839 24.78 -2.1 28.2 51 -11 12.2
08:30 1010 29.83 839 24.78 -2 28.3 51 -11 12.2
08:35 1010 29.83 839 24.78 -2 28.3 51 -10.9 12.4
08:40 1009 29.8 839 24.78 -1.9 28.6 50 -11.1 12.1
08:45 1010 29.83 839 24.78 -1.8 28.8 51 -10.7 12.7
08:50 1010 29.83 839 24.78 -1.9 28.6 50 -11 12.3
08:55 1010 29.83 839 24.78 -1.9 28.6 51 -10.6 12.8
09:00 1010 29.83 839 24.78 -1.9 28.7 51 -10.7 12.8
09:05 1010 29.83 839 24.78 -1.8 28.7 52 -10.3 13.4
09:10 1010 29.83 839 24.78 -2 28.5 54 -10.1 13.9
09:15 1010 29.83 839 24.78 -1.9 28.5 53 -10.3 13.5
09:20 1010 29.83 839 24.78 -1.8 28.7 53 -10.2 13.6
09:25 1010 29.83 839 24.78 -1.7 28.9 52 -10.2 13.6
09:30 1010 29.83 839 24.78 -1.7 28.9 52 -10.4 13.2
09:35 1010 29.83 839 24.78 -1.6 29.1 51 -10.5 13
09:40 1010 29.83 839 24.78 -1.5 29.3 51 -10.5 13.2
09:45 1010 29.83 839 24.78 -1.4 29.5 51 -10.4 13.3
09:50 1010 29.83 839 24.78 -1.3 29.6 50 -10.5 13.1
09:55 1010 29.83 839 24.78 -1.2 29.8 48 -10.9 12.5
10:00 1010 29.83 839 24.78 -1.2 29.8 50 -10.2 13.6
10:05 1010 29.83 839 24.78 -1.2 29.8 50 -10.4 13.3
10:10 1010 29.83 839 24.78 -1.2 29.9 50 -10.3 13.5
10:15 1010 29.83 839 24.78 -1.1 30 51 -10 14
10:20 1010 29.83 839 24.78 -1.1 30 51 -10 14
10:25 1010 29.83 839 24.78 -1.1 30 51 -10 14
10:30 1010 29.83 839 24.78 -1.1 30 53 -9.6 14.7
10:35 1010 29.83 839 24.78 -1.2 29.9 51 -9.9 14.1
10:40 1010 29.83 839 24.78 -1.2 29.9 51 -10 14
10:45 1010 29.83 839 24.78 -1.1 30 51 -10 14
10:50 1010 29.83 839 24.78 -1.1 30.1 52 -9.7 14.6
10:55 1010 29.83 839 24.78 -1 30.2 52 -9.7 14.5
11:00 1010 29.83 839 24.78 -1 30.2 52 -9.6 14.8
11:05 1010 29.83 839 24.78 -0.9 30.4 50 -10 14.1
11:10 1010 29.83 839 24.78 -0.8 30.5 50 -9.9 14.2
11:15 1010 29.83 839 24.78 -0.8 30.5 49 -10.3 13.4
11:20 1010 29.83 839 24.78 -0.7 30.8 48 -10.4 13.3
11:25 1010 29.83 840 24.81 -0.7 30.8 48 -10.3 13.4
11:30 1010 29.83 840 24.81 -0.6 30.9 49 -10.1 13.9
11:35 1010 29.83 840 24.81 -0.5 31 47 -10.5 13.1
11:40 1010 29.83 840 24.81 -0.4 31.3 47 -10.3 13.5
11:45 1010 29.83 839 24.78 -0.4 31.3 48 -10.1 13.9
11:50 1010 29.83 839 24.78 -0.3 31.4 46 -10.5 13
11:55 1010 29.83 839 24.78 -0.3 31.5 47 -10.4 13.3
12:00 1010 29.83 839 24.78 -0.3 31.5 47 -10.2 13.6
12:05 1010 29.83 839 24.78 -0.2 31.6 46 -10.4 13.2
12:10 1010 29.83 839 24.78 -0.2 31.7 46 -10.4 13.2
12:15 1010 29.83 839 24.78 -0.2 31.7 47 -10.3 13.5
12:20 1010 29.83 839 24.78 -0.2 31.7 47 -10 13.9
12:25 1010 29.83 839 24.78 -0.1 31.9 47 -10 14
12:30 1010 29.83 839 24.78 -0 31.9 48 -9.7 14.5
12:35 1010 29.83 839 24.78 0.1 32.1 46 -10.3 13.5
12:40 1010 29.83 839 24.78 0.1 32.1 47 -10.1 13.9
12:45 1010 29.83 839 24.78 0.1 32.2 46 -10.3 13.4
12:50 1010 29.83 839 24.78 0.1 32.3 47 -9.9 14.2
12:55 1010 29.83 839 24.78 0.2 32.3 48 -9.6 14.7
13:00 1010 29.83 839 24.78 0.1 32.2 47 -9.9 14.2
13:05 1010 29.83 839 24.78 0.2 32.3 46 -10.2 13.6
13:10 1010 29.83 839 24.78 0.2 32.4 47 -9.7 14.6
13:15 1010 29.83 839 24.78 0.2 32.4 47 -9.8 14.3
13:20 1010 29.83 839 24.78 0.3 32.5 47 -9.8 14.3
13:25 1010 29.83 839 24.78 0.3 32.5 45 -10.4 13.3
13:30 1010 29.83 839 24.78 0.3 32.5 46 -10.1 13.8
13:35 1010 29.83 839 24.78 0.3 32.6 47 -9.8 14.3
13:40 1010 29.83 839 24.78 0.3 32.5 45 -10.3 13.4
13:45 1010 29.83 839 24.78 0.3 32.6 45 -10.3 13.5
13:50 1010 29.83 839 24.78 0.3 32.6 46 -10 14
13:55 1010 29.83 839 24.78 0.4 32.7 46 -10 14.1
14:00 1010 29.83 839 24.78 0.4 32.6 47 -9.7 14.5
14:05 1010 29.83 839 24.78 0.4 32.8 47 -9.7 14.6
14:10 1010 29.83 839 24.78 0.3 32.5 48 -9.6 14.8
14:15 1010 29.83 839 24.78 0.5 32.9 47 -9.7 14.6
14:20 1010 29.83 839 24.78 0.6 33.1 47 -9.6 14.7
14:25 1010 29.83 839 24.78 0.5 33 47 -9.5 14.9
14:30 1010 29.83 839 24.78 0.6 33.1 46 -9.7 14.6
14:35 1010 29.83 839 24.78 0.6 33 47 -9.4 15.1
14:40 1010 29.83 839 24.78 0.6 33.1 47 -9.5 14.9
14:45 1010 29.83 839 24.78 0.6 33.2 47 -9.5 14.8
14:50 1010 29.83 839 24.78 0.6 33 47 -9.5 14.9
14:55 1010 29.83 839 24.78 0.5 33 48 -9.2 15.4
15:00 1010 29.83 839 24.78 0.5 32.9 47 -9.4 15.1
15:05 1010 29.83 839 24.78 0.5 32.9 47 -9.6 14.7
15:10 1010 29.83 839 24.78 0.5 32.9 48 -9.4 15.2
15:15 1010 29.83 839 24.78 0.5 32.9 45 -10.1 13.8
15:20 1010 29.83 839 24.78 0.5 33 48 -9.3 15.3
15:25 1010 29.83 839 24.78 0.5 32.9 48 -9.2 15.4
15:30 1010 29.83 839 24.78 0.5 32.8 49 -9.1 15.6
15:35 1010 29.83 839 24.78 0.5 32.9 47 -9.5 15
15:40 1010 29.83 839 24.78 0.5 32.9 48 -9.4 15.1
15:45 1010 29.83 839 24.78 0.5 32.9 47 -9.5 14.9
15:50 1010 29.83 839 24.78 0.5 32.8 49 -8.9 15.9
15:55 1010 29.83 839 24.78 0.5 32.9 48 -9.3 15.3
16:00 1010 29.83 839 24.78 0.5 32.9 48 -9.4 15.1
16:05 1010 29.83 839 24.78 0.5 32.8 48 -9.3 15.2
16:10 1010 29.83 839 24.78 0.4 32.7 49 -9.1 15.6
16:15 1010 29.83 839 24.78 0.4 32.7 50 -9 15.9
16:20 1010 29.83 839 24.78 0.4 32.7 49 -9.2 15.4
16:25 1010 29.83 839 24.78 0.4 32.6 48 -9.4 15.1
16:30 1010 29.83 839 24.78 0.4 32.7 48 -9.4 15.1
16:35 1010 29.83 839 24.78 0.3 32.6 50 -9 15.9
16:40 1010 29.83 839 24.78 0.3 32.6 47 -9.8 14.3
16:45 1010 29.83 840 24.81 0.4 32.7 48 -9.3 15.2
16:50 1010 29.83 840 24.81 0.4 32.8 46 -9.8 14.4
16:55 1010 29.83 840 24.81 0.5 32.9 47 -9.7 14.6
17:00 1011 29.85 840 24.81 0.4 32.8 48 -9.3 15.2
17:05 1011 29.85 840 24.81 0.7 33.2 46 -9.7 14.6
17:10 1011 29.85 840 24.81 0.8 33.5 47 -9.3 15.2
17:15 1011 29.85 840 24.81 0.8 33.5 46 -9.6 14.7
17:20 1011 29.85 840 24.81 0.8 33.4 47 -9.3 15.3
17:25 1011 29.85 840 24.81 0.7 33.3 48 -9 15.7
17:30 1011 29.85 840 24.81 0.6 33 48 -9.3 15.3
17:35 1011 29.85 840 24.81 0.4 32.7 49 -9.1 15.5
17:40 1011 29.85 840 24.81 0.3 32.6 47 -9.9 14.3
17:45 1011 29.85 840 24.81 0.3 32.6 47 -9.6 14.6
17:50 1011 29.85 840 24.81 0.4 32.7 46 -10 14
17:55 1011 29.85 840 24.81 0.4 32.7 48 -9.3 15.2
18:00 1011 29.85 840 24.81 0.2 32.4 49 -9.4 15.2
18:05 1011 29.85 840 24.81 0.2 32.4 49 -9.4 15.1
18:10 1011 29.85 840 24.81 0.2 32.4 46 -10 14
18:15 1011 29.85 840 24.81 0.4 32.7 46 -9.9 14.1
18:20 1011 29.85 840 24.81 0.4 32.6 47 -9.6 14.8
18:25 1011 29.85 840 24.81 0.2 32.4 47 -9.9 14.1
18:30 1011 29.85 840 24.81 0.3 32.5 46 -10 14
18:35 1011 29.85 840 24.81 0.3 32.5 47 -9.9 14.3
18:40 1011 29.85 840 24.81 0.2 32.4 46 -10 14
18:45 1011 29.85 840 24.81 0.2 32.3 46 -10.1 13.8
18:50 1011 29.85 840 24.81 0.2 32.4 46 -10.1 13.8
18:55 1011 29.85 840 24.81 0.2 32.3 46 -10.2 13.6
19:00 1011 29.85 840 24.81 0.3 32.5 46 -10.1 13.8
19:05 1011 29.85 841 24.83 0.2 32.3 45 -10.5 13.1
19:10 1011 29.85 840 24.81 0.1 32.3 48 -9.6 14.7
19:15 1011 29.85 841 24.83 0 32.1 47 -9.9 14.2
19:20 1011 29.85 840 24.81 0 32.1 46 -10.1 13.8
19:25 1011 29.85 840 24.81 0 32.1 47 -9.9 14.1
19:30 1011 29.85 841 24.83 -0 32 46 -10.3 13.4
19:35 1011 29.85 841 24.83 0.1 32.2 46 -10.2 13.6
19:40 1011 29.85 841 24.83 -0 31.9 46 -10.3 13.5
19:45 1011 29.85 841 24.83 -0.1 31.9 47 -10.1 13.8
19:50 1011 29.85 841 24.83 -0.1 31.9 46 -10.5 13.2
19:55 1011 29.85 840 24.81 -0 31.9 45 -10.7 12.8
20:00 1011 29.85 841 24.83 -0.1 31.8 46 -10.3 13.5
20:05 1011 29.85 841 24.83 -0.1 31.9 47 -10.1 13.7
20:10 1011 29.85 841 24.83 -0.1 31.8 47 -10.3 13.5
20:15 1011 29.85 841 24.83 -0.2 31.6 47 -10.3 13.5
20:20 1011 29.85 840 24.81 -0.2 31.7 46 -10.4 13.3
20:25 1011 29.85 841 24.83 -0.1 31.8 47 -10.1 13.8
20:30 1011 29.85 840 24.81 -0.2 31.6 47 -10.1 13.8
20:35 1011 29.85 841 24.83 -0.3 31.5 47 -10.2 13.6
20:40 1011 29.85 841 24.83 -0.2 31.7 47 -10.1 13.9
20:45 1011 29.85 841 24.83 -0.3 31.5 48 -9.9 14.1
20:50 1011 29.85 840 24.81 -0.3 31.5 46 -10.5 13.2
20:55 1011 29.85 840 24.81 -0.2 31.7 47 -10.2 13.6
21:00 1011 29.85 840 24.81 -0.2 31.6 48 -9.8 14.3
21:05 1011 29.85 840 24.81 -0.3 31.4 47 -10.2 13.6
21:10 1011 29.85 840 24.81 -0.3 31.4 50 -9.6 14.6
21:15 1011 29.85 840 24.81 -0.3 31.4 47 -10.2 13.6
21:20 1011 29.85 841 24.83 -0.3 31.5 48 -10 13.9
21:25 1011 29.85 841 24.83 -0.3 31.4 49 -9.7 14.5
21:30 1011 29.85 841 24.83 -0.4 31.3 50 -9.7 14.6
21:35 1011 29.85 840 24.81 -0.4 31.3 48 -10.1 13.9
21:40 1011 29.85 841 24.83 -0.3 31.5 49 -9.8 14.4
21:45 1011 29.85 841 24.83 -0.2 31.6 48 -10 14
21:50 1011 29.85 841 24.83 -0.3 31.4 48 -9.9 14.1
21:55 1012 29.88 841 24.83 -0.3 31.5 48 -10.1 13.8
22:00 1012 29.88 841 24.83 -0.2 31.6 48 -9.9 14.3
22:05 1011 29.85 841 24.83 -0.3 31.5 49 -9.7 14.5
22:10 1012 29.88 841 24.83 -0.3 31.5 47 -10.2 13.7
22:15 1012 29.88 841 24.83 -0.2 31.7 47 -10.1 13.8
22:20 1012 29.88 841 24.83 -0.1 31.8 47 -10.2 13.6
22:25 1012 29.88 841 24.83 -0 31.9 48 -9.9 14.2
22:30 1012 29.88 841 24.83 -0.2 31.6 49 -9.8 14.4
22:35 1012 29.88 841 24.83 -0.2 31.7 47 -10.3 13.5
22:40 1012 29.88 841 24.83 -0.2 31.7 48 -9.9 14.2
22:45 1012 29.88 841 24.83 -0.3 31.5 48 -10.1 13.9
22:50 1012 29.88 841 24.83 -0.3 31.5 49 -9.8 14.3
22:55 1012 29.88 841 24.83 -0.4 31.3 48 -10.1 13.8
23:00 1012 29.88 841 24.83 -0.4 31.3 49 -9.9 14.2
23:05 1012 29.88 841 24.83 -0.3 31.4 48 -10.1 13.8
23:10 1012 29.88 841 24.83 -0.4 31.3 49 -9.9 14.2
23:15 1012 29.88 841 24.83 -0.5 31.2 49 -10 14.1
23:20 1012 29.88 841 24.83 -0.4 31.3 48 -10.1 13.9
23:25 1012 29.88 841 24.83 -0.4 31.2 48 -10.1 13.9
23:30 1012 29.88 841 24.83 -0.4 31.3 49 -9.9 14.1
23:35 1012 29.88 841 24.83 -0.4 31.3 48 -10.2 13.7
23:40 1012 29.88 841 24.83 -0.4 31.2 48 -10 14
23:45 1012 29.88 841 24.83 -0.5 31.2 48 -10.1 13.8
23:50 1012 29.88 841 24.83 -0.5 31.2 49 -10 14
23:55 1012 29.88 841 24.83 -0.4 31.2 48 -10.2 13.6
24:00 1012 29.88 841 24.83 -0.4 31.3 48 -10.1 13.9